createdAt,value
2017-08-06T00:00:51.544Z,99.99
2017-08-06T00:02:00.852Z,99.99
2017-08-06T00:03:10.382Z,99.99
2017-08-06T00:04:19.912Z,99.99
2017-08-06T00:05:29.446Z,99.99
2017-08-06T00:06:38.648Z,99.99
2017-08-06T00:07:48.056Z,99.99
2017-08-06T00:08:56.937Z,99.99
2017-08-06T00:10:06.502Z,99.99
2017-08-06T00:11:16.028Z,99.99
2017-08-06T00:12:25.560Z,99.99
2017-08-06T00:13:35.136Z,99.99
2017-08-06T00:14:44.557Z,99.99
2017-08-06T00:15:53.762Z,99.99
2017-08-06T00:17:02.967Z,99.99
2017-08-06T00:18:12.172Z,99.99
2017-08-06T00:19:21.869Z,99.99
2017-08-06T00:20:31.077Z,99.99
2017-08-06T00:21:40.284Z,99.99
2017-08-06T00:22:49.815Z,99.99
2017-08-06T00:23:59.664Z,99.99
2017-08-06T00:25:09.569Z,99.99
2017-08-06T00:26:18.783Z,99.99
2017-08-06T00:27:27.992Z,99.99
2017-08-06T00:28:37.536Z,99.99
2017-08-06T00:29:47.392Z,99.99
2017-08-06T00:30:57.087Z,99.99
2017-08-06T00:32:06.616Z,99.99
2017-08-06T00:33:15.828Z,99.99
2017-08-06T00:34:24.710Z,99.99
2017-08-06T00:35:33.914Z,99.99
2017-08-06T00:36:43.609Z,99.99
2017-08-06T00:37:53.465Z,99.99
2017-08-06T00:39:02.670Z,99.99
2017-08-06T00:40:12.196Z,99.99
2017-08-06T00:41:21.729Z,99.99
2017-08-06T00:42:31.312Z,99.99
2017-08-06T00:43:41.168Z,99.99
2017-08-06T00:44:50.373Z,99.99
2017-08-06T00:45:59.578Z,99.99
2017-08-06T00:47:08.788Z,99.99
2017-08-06T00:48:18.248Z,99.99
2017-08-06T00:49:27.129Z,99.99
2017-08-06T00:50:36.337Z,99.99
2017-08-06T00:51:45.540Z,99.99
2017-08-06T00:52:54.420Z,99.99
2017-08-06T00:54:04.445Z,99.99
2017-08-06T00:55:13.975Z,99.99
2017-08-06T00:56:24.151Z,99.99
2017-08-06T00:57:33.674Z,99.99
2017-08-06T00:58:43.523Z,99.99
2017-08-06T00:59:52.832Z,99.99
2017-08-06T01:01:02.364Z,99.99
2017-08-06T01:02:12.214Z,99.99
2017-08-06T01:03:21.749Z,99.99
2017-08-06T01:04:31.600Z,99.99
2017-08-06T01:05:40.532Z,99.99
2017-08-06T01:06:50.060Z,99.99
2017-08-06T01:07:59.582Z,99.99
2017-08-06T01:09:09.434Z,99.99
2017-08-06T01:10:18.319Z,99.99
2017-08-06T01:11:27.628Z,99.99
2017-08-06T01:12:37.156Z,99.99
2017-08-06T01:13:46.682Z,99.99
2017-08-06T01:14:56.220Z,99.99
2017-08-06T01:16:05.744Z,99.99
2017-08-06T01:17:15.480Z,99.99
2017-08-06T01:18:24.683Z,99.99
2017-08-06T01:19:33.889Z,99.99
2017-08-06T01:20:43.097Z,99.99
2017-08-06T01:21:52.641Z,99.99
2017-08-06T01:23:02.876Z,99.99
2017-08-06T01:24:12.725Z,99.99
2017-08-06T01:25:22.580Z,99.99
2017-08-06T01:26:32.110Z,99.99
2017-08-06T01:27:41.971Z,99.99
2017-08-06T01:28:52.027Z,99.99
2017-08-06T01:30:01.560Z,99.99
2017-08-06T01:31:11.418Z,99.99
2017-08-06T01:32:20.948Z,99.99
2017-08-06T01:33:30.477Z,99.99
2017-08-06T01:34:40.427Z,99.99
2017-08-06T01:35:49.952Z,99.99
2017-08-06T01:36:59.798Z,99.99
2017-08-06T01:38:09.652Z,99.99
2017-08-06T01:39:18.858Z,99.99
2017-08-06T01:40:29.237Z,99.99
2017-08-06T01:41:38.446Z,99.99
2017-08-06T01:42:47.652Z,99.99
2017-08-06T01:43:57.181Z,99.99
2017-08-06T01:45:07.356Z,99.99
2017-08-06T01:46:16.612Z,99.99
2017-08-06T01:47:25.818Z,99.99
2017-08-06T01:48:35.027Z,99.99
2017-08-06T01:49:44.244Z,99.99
2017-08-06T01:50:53.774Z,99.99
2017-08-06T01:52:03.354Z,99.99
2017-08-06T01:53:12.230Z,99.99
2017-08-06T01:54:21.756Z,99.99
2017-08-06T01:55:30.639Z,99.99
2017-08-06T01:56:39.853Z,99.99
2017-08-06T01:57:49.356Z,99.99
2017-08-06T01:58:58.574Z,99.99
2017-08-06T02:00:07.454Z,99.99
2017-08-06T02:01:17.302Z,99.99
2017-08-06T02:02:26.184Z,99.99
2017-08-06T02:03:35.810Z,99.99
2017-08-06T02:04:45.041Z,99.99
2017-08-06T02:05:54.246Z,99.99
2017-08-06T02:07:03.446Z,99.99
2017-08-06T02:08:12.330Z,99.99
2017-08-06T02:09:22.479Z,99.99
2017-08-06T02:10:31.681Z,99.99
2017-08-06T02:11:40.893Z,99.99
2017-08-06T02:12:50.095Z,99.99
2017-08-06T02:13:58.981Z,99.99
2017-08-06T02:15:09.182Z,99.99
2017-08-06T02:16:18.390Z,99.99
2017-08-06T02:17:28.238Z,99.99
2017-08-06T02:18:37.439Z,99.99
2017-08-06T02:19:46.321Z,99.99
2017-08-06T02:20:55.544Z,99.99
2017-08-06T02:22:05.077Z,99.99
2017-08-06T02:23:14.281Z,99.99
2017-08-06T02:24:24.133Z,99.99
2017-08-06T02:25:33.660Z,99.99
2017-08-06T02:26:43.661Z,99.99
2017-08-06T02:27:53.510Z,99.99
2017-08-06T02:29:02.394Z,99.99
2017-08-06T02:30:11.929Z,99.99
2017-08-06T02:31:21.465Z,99.99
2017-08-06T02:32:31.241Z,99.99
2017-08-06T02:33:40.772Z,99.99
2017-08-06T02:34:50.298Z,99.99
2017-08-06T02:35:59.841Z,99.99
2017-08-06T02:37:08.721Z,99.99
2017-08-06T02:38:18.254Z,99.99
2017-08-06T02:39:28.437Z,99.99
2017-08-06T02:40:38.295Z,99.99
2017-08-06T02:41:48.146Z,99.99
2017-08-06T02:42:57.357Z,99.99
2017-08-06T02:44:07.314Z,99.99
2017-08-06T02:45:17.169Z,99.99
2017-08-06T02:46:26.702Z,99.99
2017-08-06T02:47:36.555Z,99.99
2017-08-06T02:48:45.436Z,99.99
2017-08-06T02:49:55.310Z,99.99
2017-08-06T02:51:04.853Z,99.99
2017-08-06T02:52:15.032Z,99.99
2017-08-06T02:53:24.240Z,99.99
2017-08-06T02:54:33.785Z,99.99
2017-08-06T02:55:43.287Z,99.99
2017-08-06T02:56:53.459Z,99.99
2017-08-06T02:58:02.341Z,99.99
2017-08-06T02:59:12.189Z,99.99
2017-08-06T03:00:22.046Z,99.99
2017-08-06T03:01:31.502Z,99.99
2017-08-06T03:02:40.385Z,99.99
2017-08-06T03:03:49.587Z,99.99
2017-08-06T03:04:59.112Z,99.99
2017-08-06T03:06:08.963Z,99.99
2017-08-06T03:07:18.641Z,99.99
2017-08-06T03:08:27.840Z,99.99
2017-08-06T03:09:36.723Z,99.99
2017-08-06T03:10:46.248Z,99.99
2017-08-06T03:11:55.129Z,99.99
2017-08-06T03:13:04.484Z,99.99
2017-08-06T03:14:13.365Z,99.99
2017-08-06T03:15:22.588Z,99.99
2017-08-06T03:16:31.471Z,99.99
2017-08-06T03:17:40.995Z,99.99
2017-08-06T03:18:50.993Z,99.99
2017-08-06T03:20:00.517Z,99.99
2017-08-06T03:21:09.721Z,99.99
2017-08-06T03:22:18.602Z,99.99
2017-08-06T03:23:27.807Z,99.99
2017-08-06T03:24:37.163Z,99.99
2017-08-06T03:25:46.044Z,99.99
2017-08-06T03:26:55.904Z,99.99
2017-08-06T03:28:05.107Z,99.99
2017-08-06T03:29:14.636Z,99.99
2017-08-06T03:30:24.354Z,99.99
2017-08-06T03:31:34.213Z,99.99
2017-08-06T03:32:43.416Z,99.99
2017-08-06T03:33:53.592Z,99.99
2017-08-06T03:35:02.487Z,99.99
2017-08-06T03:36:12.325Z,99.99
2017-08-06T03:37:21.853Z,99.99
2017-08-06T03:38:31.057Z,99.99
2017-08-06T03:39:40.262Z,99.99
2017-08-06T03:40:49.470Z,99.99
2017-08-06T03:41:58.825Z,99.99
2017-08-06T03:43:08.034Z,99.99
2017-08-06T03:44:18.214Z,99.99
2017-08-06T03:45:28.066Z,99.99
2017-08-06T03:46:37.590Z,99.99
2017-08-06T03:47:46.840Z,99.99
2017-08-06T03:48:56.702Z,99.99
2017-08-06T03:50:06.554Z,99.99
2017-08-06T03:51:16.084Z,99.99
2017-08-06T03:52:24.970Z,99.99
2017-08-06T03:53:33.851Z,99.99
2017-08-06T03:54:43.701Z,99.99
2017-08-06T03:55:52.903Z,99.99
2017-08-06T03:57:02.108Z,99.99
2017-08-06T03:58:11.652Z,99.99
2017-08-06T03:59:21.005Z,99.99
2017-08-06T04:00:30.532Z,99.99
2017-08-06T04:01:39.423Z,99.99
2017-08-06T04:02:48.954Z,99.99
2017-08-06T04:03:58.482Z,99.99
2017-08-06T04:05:08.486Z,99.99
2017-08-06T04:06:18.017Z,99.99
2017-08-06T04:07:28.192Z,99.99
2017-08-06T04:08:37.393Z,99.99
2017-08-06T04:09:46.922Z,99.99
2017-08-06T04:10:56.123Z,99.99
2017-08-06T04:12:05.650Z,99.99
2017-08-06T04:13:15.505Z,99.99
2017-08-06T04:14:25.034Z,99.99
2017-08-06T04:15:34.562Z,99.99
2017-08-06T04:16:43.918Z,99.99
2017-08-06T04:17:53.121Z,99.99
2017-08-06T04:19:03.304Z,99.99
2017-08-06T04:20:12.887Z,99.99
2017-08-06T04:21:22.738Z,99.99
2017-08-06T04:22:32.414Z,99.99
2017-08-06T04:23:41.617Z,99.99
2017-08-06T04:24:50.501Z,99.99
2017-08-06T04:25:59.381Z,99.99
2017-08-06T04:27:08.588Z,99.99
2017-08-06T04:28:18.269Z,99.99
2017-08-06T04:29:27.797Z,99.99
2017-08-06T04:30:37.330Z,99.99
2017-08-06T04:31:46.867Z,99.99
2017-08-06T04:32:56.714Z,99.99
2017-08-06T04:34:06.542Z,99.99
2017-08-06T04:35:15.747Z,99.99
2017-08-06T04:36:25.274Z,99.99
2017-08-06T04:37:34.480Z,99.99
2017-08-06T04:38:43.685Z,99.99
2017-08-06T04:39:53.088Z,99.99
2017-08-06T04:41:02.619Z,99.99
2017-08-06T04:42:12.147Z,99.99
2017-08-06T04:43:21.673Z,99.99
2017-08-06T04:44:31.198Z,99.99
2017-08-06T04:45:40.282Z,99.99
2017-08-06T04:46:49.164Z,99.99
2017-08-06T04:47:58.697Z,99.99
2017-08-06T04:49:07.904Z,99.99
2017-08-06T04:50:17.105Z,99.99
2017-08-06T04:51:26.458Z,99.99
2017-08-06T04:52:35.665Z,99.99
2017-08-06T04:53:45.194Z,99.99
2017-08-06T04:54:55.047Z,99.99
2017-08-06T04:56:05.225Z,99.99
2017-08-06T04:57:14.110Z,99.99
2017-08-06T04:58:23.323Z,99.99
2017-08-06T04:59:32.852Z,99.99
2017-08-06T05:00:42.382Z,99.99
2017-08-06T05:01:51.596Z,99.99
2017-08-06T05:03:01.330Z,99.99
2017-08-06T05:04:11.177Z,99.99
2017-08-06T05:05:20.071Z,99.99
2017-08-06T05:06:29.606Z,99.99
2017-08-06T05:07:39.460Z,99.99
2017-08-06T05:08:49.313Z,99.99
2017-08-06T05:09:58.198Z,99.99
2017-08-06T05:11:07.721Z,99.99
2017-08-06T05:12:16.600Z,99.99
2017-08-06T05:13:26.132Z,99.99
2017-08-06T05:14:35.487Z,99.99
2017-08-06T05:15:44.693Z,99.99
2017-08-06T05:16:53.897Z,99.99
2017-08-06T05:18:03.099Z,99.99
2017-08-06T05:19:12.335Z,99.99
2017-08-06T05:20:22.342Z,99.99
2017-08-06T05:21:32.526Z,99.99
2017-08-06T05:22:41.734Z,99.99
2017-08-06T05:23:50.625Z,99.99
2017-08-06T05:24:59.830Z,99.99
2017-08-06T05:26:09.940Z,99.99
2017-08-06T05:27:19.793Z,99.99
2017-08-06T05:28:29.650Z,99.99
2017-08-06T05:29:39.202Z,99.99
2017-08-06T05:30:48.737Z,99.99
2017-08-06T05:31:58.046Z,99.99
2017-08-06T05:33:07.576Z,99.99
2017-08-06T05:34:16.783Z,99.99
2017-08-06T05:35:25.672Z,99.99
2017-08-06T05:36:34.551Z,99.99
2017-08-06T05:37:43.491Z,99.99
2017-08-06T05:38:52.698Z,99.99
2017-08-06T05:40:02.241Z,99.99
2017-08-06T05:41:12.421Z,99.99
2017-08-06T05:42:21.946Z,99.99
2017-08-06T05:43:31.632Z,99.99
2017-08-06T05:44:41.155Z,99.99
2017-08-06T05:45:50.367Z,99.99
2017-08-06T05:47:00.543Z,99.99
2017-08-06T05:48:10.392Z,99.99
2017-08-06T05:49:20.298Z,99.99
2017-08-06T05:50:30.146Z,99.99
2017-08-06T05:51:39.675Z,99.99
2017-08-06T05:52:48.556Z,99.99
2017-08-06T05:53:57.770Z,99.99
2017-08-06T05:55:08.223Z,99.99
2017-08-06T05:56:17.427Z,99.99
2017-08-06T05:57:27.597Z,99.99
2017-08-06T05:58:37.446Z,99.99
2017-08-06T05:59:47.298Z,99.99
2017-08-06T06:00:57.350Z,99.99
2017-08-06T06:02:06.240Z,99.99
2017-08-06T06:03:16.102Z,99.99
2017-08-06T06:04:25.632Z,99.99
2017-08-06T06:05:35.169Z,99.99
2017-08-06T06:06:44.147Z,99.99
2017-08-06T06:07:53.031Z,99.99
2017-08-06T06:09:02.571Z,99.99
2017-08-06T06:10:12.422Z,99.99
2017-08-06T06:11:22.284Z,99.99
2017-08-06T06:12:31.921Z,99.99
2017-08-06T06:13:41.783Z,99.99
2017-08-06T06:14:51.644Z,99.99
2017-08-06T06:16:01.497Z,99.99
2017-08-06T06:17:11.034Z,99.99
2017-08-06T06:18:21.042Z,99.99
2017-08-06T06:19:30.570Z,99.99
2017-08-06T06:20:39.776Z,99.99
2017-08-06T06:21:48.980Z,99.99
2017-08-06T06:22:58.191Z,99.99
2017-08-06T06:24:07.596Z,99.99
2017-08-06T06:25:17.451Z,99.99
2017-08-06T06:26:26.984Z,99.99
2017-08-06T06:27:36.835Z,99.99
2017-08-06T06:28:46.039Z,99.99
2017-08-06T06:29:55.588Z,99.99
2017-08-06T06:31:05.121Z,99.99
2017-08-06T06:32:14.653Z,99.99
2017-08-06T06:33:24.190Z,99.99
2017-08-06T06:34:33.395Z,99.99
2017-08-06T06:35:42.851Z,99.99
2017-08-06T06:36:52.379Z,99.99
2017-08-06T06:38:02.235Z,99.99
2017-08-06T06:39:12.089Z,99.99
2017-08-06T06:40:21.299Z,99.99
2017-08-06T06:41:30.660Z,99.99
2017-08-06T06:42:40.188Z,99.99
2017-08-06T06:43:49.396Z,99.99
2017-08-06T06:44:58.925Z,99.99
2017-08-06T06:46:08.469Z,99.99
2017-08-06T06:47:17.775Z,99.99
2017-08-06T06:48:26.659Z,99.99
2017-08-06T06:49:36.185Z,99.99
2017-08-06T06:50:45.072Z,99.99
2017-08-06T06:51:54.604Z,99.99
2017-08-06T06:53:04.778Z,99.99
2017-08-06T06:54:14.304Z,99.99
2017-08-06T06:55:24.158Z,99.99
2017-08-06T06:56:33.687Z,99.99
2017-08-06T06:57:42.905Z,99.99
2017-08-06T06:58:53.083Z,99.99
2017-08-06T07:00:02.942Z,99.99
2017-08-06T07:01:11.836Z,99.99
2017-08-06T07:02:21.687Z,99.99
2017-08-06T07:03:31.230Z,99.99
2017-08-06T07:04:40.866Z,99.99
2017-08-06T07:05:50.400Z,99.99
2017-08-06T07:06:59.929Z,99.99
2017-08-06T07:08:08.809Z,99.99
2017-08-06T07:09:18.339Z,99.99
2017-08-06T07:10:27.525Z,99.99
2017-08-06T07:11:37.051Z,99.99
2017-08-06T07:12:46.580Z,99.99
2017-08-06T07:13:56.150Z,99.99
2017-08-06T07:15:05.681Z,99.99
2017-08-06T07:16:15.538Z,99.99
2017-08-06T07:17:24.752Z,99.99
2017-08-06T07:18:34.928Z,99.99
2017-08-06T07:19:44.782Z,99.99
2017-08-06T07:20:54.313Z,99.99
2017-08-06T07:22:03.674Z,99.99
2017-08-06T07:23:13.850Z,99.99
2017-08-06T07:24:23.376Z,99.99
2017-08-06T07:25:32.910Z,99.99
2017-08-06T07:26:42.119Z,99.99
2017-08-06T07:27:51.477Z,99.99
2017-08-06T07:29:00.386Z,99.99
2017-08-06T07:30:09.596Z,99.99
2017-08-06T07:31:19.128Z,99.99
2017-08-06T07:32:28.342Z,99.99
2017-08-06T07:33:38.073Z,99.99
2017-08-06T07:34:47.603Z,99.99
2017-08-06T07:35:56.807Z,99.99
2017-08-06T07:37:06.013Z,99.99
2017-08-06T07:38:15.592Z,99.99
2017-08-06T07:39:24.489Z,99.99
2017-08-06T07:40:34.016Z,99.99
2017-08-06T07:41:43.547Z,99.99
2017-08-06T07:42:53.073Z,99.99
2017-08-06T07:44:02.281Z,99.99
2017-08-06T07:45:11.869Z,99.82
2017-08-06T07:46:21.080Z,99.99
2017-08-06T07:47:30.295Z,99.99
2017-08-06T07:48:39.185Z,99.99
2017-08-06T07:49:48.710Z,99.99
2017-08-06T07:50:58.725Z,99.99
2017-08-06T07:52:08.258Z,99.99
2017-08-06T07:53:18.117Z,99.99
2017-08-06T07:54:27.645Z,98.05
2017-08-06T07:55:37.193Z,97.47
2017-08-06T07:56:47.247Z,99.01
2017-08-06T07:57:56.453Z,98.72
2017-08-06T07:59:05.681Z,99.01
2017-08-06T08:00:15.861Z,95.26
2017-08-06T08:01:25.722Z,95.84
2017-08-06T08:02:35.044Z,94.89
2017-08-06T08:03:45.223Z,95.07
2017-08-06T08:04:54.759Z,94.59
2017-08-06T08:06:03.647Z,94.4
2017-08-06T08:07:13.831Z,94.45
2017-08-06T08:08:23.736Z,94.93
2017-08-06T08:09:33.267Z,95.89
2017-08-06T08:10:42.797Z,96.27
2017-08-06T08:11:51.682Z,94.26
2017-08-06T08:13:01.214Z,95.6
2017-08-06T08:14:10.901Z,95.51
2017-08-06T08:15:20.429Z,94.84
2017-08-06T08:16:30.292Z,95.12
2017-08-06T08:17:40.469Z,96.22
2017-08-06T08:18:50.008Z,95.26
2017-08-06T08:19:59.419Z,94.88
2017-08-06T08:21:09.599Z,94.79
2017-08-06T08:22:18.808Z,92.77
2017-08-06T08:23:28.339Z,93.15
2017-08-06T08:24:38.193Z,91.33
2017-08-06T08:25:48.248Z,92.39
2017-08-06T08:26:58.099Z,93.82
2017-08-06T08:28:07.628Z,94.4
2017-08-06T08:29:16.837Z,93.73
2017-08-06T08:30:26.046Z,92.77
2017-08-06T08:31:35.309Z,91.96
2017-08-06T08:32:44.525Z,90.42
2017-08-06T08:33:53.440Z,90.32
2017-08-06T08:35:02.361Z,89.75
2017-08-06T08:36:12.222Z,89.36
2017-08-06T08:37:21.529Z,90.22
2017-08-06T08:38:30.740Z,90.32
2017-08-06T08:39:39.951Z,91.19
2017-08-06T08:40:48.837Z,90.7
2017-08-06T08:41:58.042Z,90.52
2017-08-06T08:43:07.548Z,90.52
2017-08-06T08:44:17.079Z,89.98
2017-08-06T08:45:25.970Z,90.03
2017-08-06T08:46:35.498Z,90.42
2017-08-06T08:47:45.678Z,90.32
2017-08-06T08:48:55.319Z,90.52
2017-08-06T08:50:04.850Z,90.37
2017-08-06T08:51:14.384Z,91.23
2017-08-06T08:52:23.915Z,91.42
2017-08-06T08:53:33.123Z,89.6
2017-08-06T08:54:42.430Z,88.73
2017-08-06T08:55:51.969Z,88.64
2017-08-06T08:57:01.174Z,88.73
2017-08-06T08:58:10.701Z,89.6
2017-08-06T08:59:20.237Z,89.02
2017-08-06T09:00:29.831Z,88.87
2017-08-06T09:01:39.040Z,87.72
2017-08-06T09:02:49.255Z,88.78
2017-08-06T09:03:58.787Z,89.02
2017-08-06T09:05:08.968Z,89.22
2017-08-06T09:06:18.715Z,88.68
2017-08-06T09:07:27.600Z,87.82
2017-08-06T09:08:37.455Z,85.99
2017-08-06T09:09:46.669Z,86.85
2017-08-06T09:10:55.552Z,86.38
2017-08-06T09:12:05.233Z,86.14
2017-08-06T09:13:14.446Z,86.91
2017-08-06T09:14:23.653Z,88.45
2017-08-06T09:15:33.189Z,87.49
2017-08-06T09:16:42.395Z,87.39
2017-08-06T09:17:51.331Z,87.05
2017-08-06T09:19:01.186Z,87.05
2017-08-06T09:20:10.722Z,86.76
2017-08-06T09:21:19.937Z,84.74
2017-08-06T09:22:29.141Z,84.84
2017-08-06T09:23:38.277Z,84.64
2017-08-06T09:24:47.491Z,82.96
2017-08-06T09:25:56.704Z,83.53
2017-08-06T09:27:05.912Z,83.06
2017-08-06T09:28:15.443Z,82.92
2017-08-06T09:29:24.663Z,82.24
2017-08-06T09:30:34.516Z,81.96
2017-08-06T09:31:43.733Z,82.24
2017-08-06T09:32:52.942Z,83.11
2017-08-06T09:34:02.172Z,83.83
2017-08-06T09:35:12.081Z,83.15
2017-08-06T09:36:21.618Z,81.52
2017-08-06T09:37:30.508Z,81.42
2017-08-06T09:38:39.717Z,81.42
2017-08-06T09:39:48.926Z,80.46
2017-08-06T09:40:58.389Z,79.63
2017-08-06T09:42:07.283Z,77.61
2017-08-06T09:43:16.493Z,77.29
2017-08-06T09:44:26.023Z,77.86
2017-08-06T09:45:35.231Z,80.07
2017-08-06T09:46:44.593Z,79.69
2017-08-06T09:47:53.806Z,80.07
2017-08-06T09:49:03.347Z,79.69
2017-08-06T09:50:13.208Z,78.44
2017-08-06T09:51:23.069Z,77.81
2017-08-06T09:52:32.341Z,78
2017-08-06T09:53:41.551Z,78.96
2017-08-06T09:54:51.406Z,78.77
2017-08-06T09:56:00.936Z,77.33
2017-08-06T09:57:10.800Z,75.79
2017-08-06T09:58:20.709Z,77.42
2017-08-06T09:59:29.920Z,76.07
2017-08-06T10:00:38.808Z,77.04
2017-08-06T10:01:48.338Z,77.61
2017-08-06T10:02:57.874Z,76.75
2017-08-06T10:04:07.571Z,76.36
2017-08-06T10:05:16.786Z,74.82
2017-08-06T10:06:25.673Z,75.59
2017-08-06T10:07:35.205Z,76.32
2017-08-06T10:08:44.421Z,76.65
2017-08-06T10:09:53.509Z,76.75
2017-08-06T10:11:02.725Z,77.33
2017-08-06T10:12:12.905Z,75.31
2017-08-06T10:13:21.790Z,74.05
2017-08-06T10:14:31.012Z,74.44
2017-08-06T10:15:40.850Z,74.25
2017-08-06T10:16:50.059Z,74.82
2017-08-06T10:17:59.593Z,73
2017-08-06T10:19:09.131Z,74.63
2017-08-06T10:20:18.982Z,73.99
2017-08-06T10:21:28.565Z,75.05
2017-08-06T10:22:38.100Z,74.29
2017-08-06T10:23:47.648Z,73.22
2017-08-06T10:24:57.505Z,73.03
2017-08-06T10:26:06.718Z,73.03
2017-08-06T10:27:16.030Z,73.99
2017-08-06T10:28:25.893Z,73.22
2017-08-06T10:29:35.117Z,74.19
2017-08-06T10:30:44.648Z,73.22
2017-08-06T10:31:54.498Z,70.43
2017-08-06T10:33:03.857Z,70.92
2017-08-06T10:34:12.913Z,71.3
2017-08-06T10:35:22.127Z,72.55
2017-08-06T10:36:31.662Z,72.84
2017-08-06T10:37:41.202Z,70.72
2017-08-06T10:38:50.712Z,70.24
2017-08-06T10:40:00.248Z,71.2
2017-08-06T10:41:09.457Z,72.07
2017-08-06T10:42:18.345Z,72.55
2017-08-06T10:43:27.575Z,71.4
2017-08-06T10:44:36.561Z,71.4
2017-08-06T10:45:46.095Z,72.74
2017-08-06T10:46:55.629Z,72.94
2017-08-06T10:48:05.159Z,73.71
2017-08-06T10:49:14.693Z,71.97
2017-08-06T10:50:24.916Z,73.51
2017-08-06T10:51:34.139Z,73.99
2017-08-06T10:52:43.350Z,73.36
2017-08-06T10:53:53.206Z,72.11
2017-08-06T10:55:02.414Z,71.14
2017-08-06T10:56:11.676Z,71.72
2017-08-06T10:57:21.229Z,70.95
2017-08-06T10:58:31.088Z,71.04
2017-08-06T10:59:40.292Z,71.91
2017-08-06T11:00:49.515Z,70.86
2017-08-06T11:01:59.368Z,72.3
2017-08-06T11:03:08.582Z,70.76
2017-08-06T11:04:18.121Z,70.7
2017-08-06T11:05:27.651Z,71.66
2017-08-06T11:06:36.860Z,68.96
2017-08-06T11:07:46.868Z,68.96
2017-08-06T11:08:56.078Z,69.45
2017-08-06T11:10:05.936Z,70.02
2017-08-06T11:11:15.470Z,69.48
2017-08-06T11:12:25.003Z,69.48
2017-08-06T11:13:35.235Z,68.9
2017-08-06T11:14:44.445Z,70.35
2017-08-06T11:15:53.975Z,70.44
2017-08-06T11:17:03.192Z,68.61
2017-08-06T11:18:13.053Z,69.09
2017-08-06T11:19:22.416Z,69.57
2017-08-06T11:20:31.628Z,70.35
2017-08-06T11:21:40.846Z,67.94
2017-08-06T11:22:50.391Z,68.13
2017-08-06T11:23:59.599Z,68.52
2017-08-06T11:25:09.235Z,69.38
2017-08-06T11:26:18.766Z,69.19
2017-08-06T11:27:28.948Z,68.23
2017-08-06T11:28:38.166Z,68.04
2017-08-06T11:29:47.716Z,68.61
2017-08-06T11:30:57.400Z,69.09
2017-08-06T11:32:06.288Z,68.71
2017-08-06T11:33:15.502Z,68.99
2017-08-06T11:34:25.369Z,69.09
2017-08-06T11:35:34.580Z,70.15
2017-08-06T11:36:43.897Z,69.48
2017-08-06T11:37:53.137Z,69.19
2017-08-06T11:39:02.343Z,69.13
2017-08-06T11:40:11.557Z,67.2
2017-08-06T11:41:21.415Z,67.49
2017-08-06T11:42:31.110Z,68.35
2017-08-06T11:43:39.994Z,68.84
2017-08-06T11:44:49.532Z,68.74
2017-08-06T11:45:58.745Z,69.03
2017-08-06T11:47:08.605Z,68.74
2017-08-06T11:48:17.547Z,69.32
2017-08-06T11:49:26.764Z,70.57
2017-08-06T11:50:35.649Z,68.71
2017-08-06T11:51:45.182Z,68.74
2017-08-06T11:52:54.077Z,68.16
2017-08-06T11:54:03.114Z,67.68
2017-08-06T11:55:12.651Z,68.93
2017-08-06T11:56:21.539Z,69.23
2017-08-06T11:57:30.751Z,67.84
2017-08-06T11:58:39.961Z,68.26
2017-08-06T11:59:49.918Z,67.16
2017-08-06T12:00:59.452Z,67.36
2017-08-06T12:02:08.994Z,67.16
2017-08-06T12:03:19.174Z,67.71
2017-08-06T12:04:28.707Z,68
2017-08-06T12:05:38.087Z,68.77
2017-08-06T12:06:47.637Z,69.45
2017-08-06T12:07:56.846Z,69.48
2017-08-06T12:09:06.377Z,68.99
2017-08-06T12:10:15.591Z,68.61
2017-08-06T12:11:25.549Z,69.8
2017-08-06T12:12:35.087Z,69.9
2017-08-06T12:13:44.949Z,69.13
2017-08-06T12:14:53.839Z,68.01
2017-08-06T12:16:03.057Z,66.08
2017-08-06T12:17:12.568Z,66.08
2017-08-06T12:18:22.439Z,65.98
2017-08-06T12:19:31.664Z,65.53
2017-08-06T12:20:40.561Z,66.3
2017-08-06T12:21:49.775Z,65.43
2017-08-06T12:22:59.691Z,65.82
2017-08-06T12:24:09.226Z,65.43
2017-08-06T12:25:18.445Z,65.43
2017-08-06T12:26:28.310Z,64.86
2017-08-06T12:27:37.858Z,64.37
2017-08-06T12:28:46.861Z,63.6
2017-08-06T12:29:56.403Z,64.4
2017-08-06T12:31:05.958Z,63.05
2017-08-06T12:32:15.175Z,62.5
2017-08-06T12:33:24.393Z,62.79
2017-08-06T12:34:33.439Z,62.7
2017-08-06T12:35:42.659Z,61.73
2017-08-06T12:36:51.881Z,61.25
2017-08-06T12:38:01.664Z,61.05
2017-08-06T12:39:10.879Z,61.86
2017-08-06T12:40:20.539Z,59.44
2017-08-06T12:41:29.757Z,59.18
2017-08-06T12:42:38.981Z,58.57
2017-08-06T12:43:48.214Z,58.4
2017-08-06T12:44:57.119Z,57.34
2017-08-06T12:46:06.767Z,56.95
2017-08-06T12:47:15.998Z,56.21
2017-08-06T12:48:25.218Z,55.63
2017-08-06T12:49:34.767Z,56.24
2017-08-06T12:50:44.972Z,56.02
2017-08-06T12:51:54.672Z,54.95
2017-08-06T12:53:03.894Z,55.53
2017-08-06T12:54:13.442Z,55.79
2017-08-06T12:55:22.341Z,56.73
2017-08-06T12:56:31.565Z,57.34
2017-08-06T12:57:41.274Z,56.95
2017-08-06T12:58:50.836Z,56.37
2017-08-06T13:00:00.379Z,56.3
2017-08-06T13:01:09.929Z,55.94
2017-08-06T13:02:19.799Z,56.24
2017-08-06T13:03:29.226Z,56.43
2017-08-06T13:04:38.777Z,55.78
2017-08-06T13:05:48.005Z,54.23
2017-08-06T13:06:57.230Z,52
2017-08-06T13:08:07.106Z,51.81
2017-08-06T13:09:17.031Z,52.22
2017-08-06T13:10:26.583Z,52.29
2017-08-06T13:11:35.486Z,52.29
2017-08-06T13:12:44.717Z,53.17
2017-08-06T13:13:54.584Z,53
2017-08-06T13:15:03.925Z,53.09
2017-08-06T13:16:13.855Z,53.55
2017-08-06T13:17:23.076Z,54.13
2017-08-06T13:18:32.624Z,54.52
2017-08-06T13:19:42.170Z,54.55
2017-08-06T13:20:51.565Z,54.06
2017-08-06T13:22:00.788Z,53.12
2017-08-06T13:23:10.341Z,51.67
2017-08-06T13:24:20.218Z,52.12
2017-08-06T13:25:29.441Z,52.22
2017-08-06T13:26:38.547Z,53.12
2017-08-06T13:27:48.094Z,53.29
2017-08-06T13:28:56.996Z,53.87
2017-08-06T13:30:06.222Z,52.97
2017-08-06T13:31:15.770Z,54.81
2017-08-06T13:32:25.146Z,54.62
2017-08-06T13:33:34.692Z,56.07
2017-08-06T13:34:43.914Z,54.59
2017-08-06T13:35:53.133Z,53.04
2017-08-06T13:37:02.674Z,54.69
2017-08-06T13:38:12.126Z,54.57
2017-08-06T13:39:21.029Z,54.66
2017-08-06T13:40:30.245Z,55.43
2017-08-06T13:41:39.462Z,55.63
2017-08-06T13:42:48.359Z,55.73
2017-08-06T13:43:57.949Z,55.51
2017-08-06T13:45:07.488Z,55.99
2017-08-06T13:46:16.380Z,56.05
2017-08-06T13:47:25.273Z,56.54
2017-08-06T13:48:34.493Z,56.35
2017-08-06T13:49:44.016Z,55.87
2017-08-06T13:50:53.597Z,55.57
2017-08-06T13:52:02.812Z,56.15
2017-08-06T13:53:12.033Z,56.15
2017-08-06T13:54:20.921Z,56.22
2017-08-06T13:55:30.186Z,56.32
2017-08-06T13:56:39.074Z,57.67
2017-08-06T13:57:48.296Z,58.64
2017-08-06T13:58:57.506Z,57.29
2017-08-06T14:00:06.717Z,58.35
2017-08-06T14:01:15.990Z,58.9
2017-08-06T14:02:25.523Z,59.38
2017-08-06T14:03:35.058Z,59.58
2017-08-06T14:04:45.240Z,59.48
2017-08-06T14:05:54.449Z,59.48
2017-08-06T14:07:04.366Z,59.64
2017-08-06T14:08:13.634Z,60.89
2017-08-06T14:09:22.850Z,59.48
2017-08-06T14:10:32.062Z,58.42
2017-08-06T14:11:41.276Z,58.45
2017-08-06T14:12:50.488Z,56.83
2017-08-06T14:13:59.704Z,56.67
2017-08-06T14:15:09.288Z,56.95
2017-08-06T14:16:18.505Z,56.47
2017-08-06T14:17:28.046Z,56.09
2017-08-06T14:18:36.946Z,57.05
2017-08-06T14:19:46.487Z,57.05
2017-08-06T14:20:55.377Z,56.86
2017-08-06T14:22:04.597Z,58.4
2017-08-06T14:23:14.140Z,58.18
2017-08-06T14:24:23.606Z,58.89
2017-08-06T14:25:32.501Z,58.89
2017-08-06T14:26:41.716Z,56.67
2017-08-06T14:27:50.942Z,56.88
2017-08-06T14:29:00.168Z,56.79
2017-08-06T14:30:09.807Z,57.37
2017-08-06T14:31:19.024Z,57.76
2017-08-06T14:32:28.568Z,58.24
2017-08-06T14:33:37.783Z,59.01
2017-08-06T14:34:47.003Z,57.98
2017-08-06T14:35:56.705Z,56.24
2017-08-06T14:37:06.575Z,56.65
2017-08-06T14:38:15.793Z,54.84
2017-08-06T14:39:25.013Z,54.62
2017-08-06T14:40:34.881Z,54.74
2017-08-06T14:41:44.430Z,53.19
2017-08-06T14:42:53.650Z,52.06
2017-08-06T14:44:03.197Z,52.64
2017-08-06T14:45:12.742Z,52.08
2017-08-06T14:46:21.966Z,52.95
2017-08-06T14:47:31.684Z,52.95
2017-08-06T14:48:41.229Z,52.08
2017-08-06T14:49:50.463Z,51.31
2017-08-06T14:50:59.366Z,52.06
2017-08-06T14:52:08.916Z,53.89
2017-08-06T14:53:18.460Z,51.93
2017-08-06T14:54:27.361Z,54.16
2017-08-06T14:55:36.264Z,53.39